sensor_id;sensor_type;location;lat;lon;timestamp;temperature;humidity
6627;DHT22;3349;49.830;8.748;2022-09-03T03:07:05;17.20;1.00
6627;DHT22;3349;49.830;8.748;2022-09-03T03:09:32;17.20;1.00
6627;DHT22;3349;49.830;8.748;2022-09-03T03:11:59;17.20;1.00
6627;DHT22;3349;49.830;8.748;2022-09-03T03:14:26;17.20;1.00
6627;DHT22;3349;49.830;8.748;2022-09-03T03:16:53;17.20;1.00
6627;DHT22;3349;49.830;8.748;2022-09-03T03:19:20;17.20;1.00
6627;DHT22;3349;49.830;8.748;2022-09-03T03:21:46;17.10;1.00
6627;DHT22;3349;49.830;8.748;2022-09-03T03:24:14;17.10;1.00
6627;DHT22;3349;49.830;8.748;2022-09-03T03:26:41;17.20;1.00
6627;DHT22;3349;49.830;8.748;2022-09-03T03:29:13;17.10;1.00
6627;DHT22;3349;49.830;8.748;2022-09-03T03:31:41;17.20;1.00
6627;DHT22;3349;49.830;8.748;2022-09-03T03:34:08;17.20;1.00
6627;DHT22;3349;49.830;8.748;2022-09-03T03:36:35;17.20;1.00
6627;DHT22;3349;49.830;8.748;2022-09-03T03:39:02;17.20;1.00
6627;DHT22;3349;49.830;8.748;2022-09-03T03:41:32;17.20;1.00
6627;DHT22;3349;49.830;8.748;2022-09-03T03:44:00;17.10;1.00
6627;DHT22;3349;49.830;8.748;2022-09-03T03:46:30;17.20;1.00
6627;DHT22;3349;49.830;8.748;2022-09-03T03:48:58;17.10;1.00
6627;DHT22;3349;49.830;8.748;2022-09-03T03:51:25;17.20;1.00
6627;DHT22;3349;49.830;8.748;2022-09-03T03:53:53;17.20;1.00
6627;DHT22;3349;49.830;8.748;2022-09-03T03:56:21;17.20;1.00
6627;DHT22;3349;49.830;8.748;2022-09-03T03:58:51;17.20;1.00
6627;DHT22;3349;49.830;8.748;2022-09-03T04:01:19;17.20;1.00
6627;DHT22;3349;49.830;8.748;2022-09-03T04:03:46;17.20;1.00
6627;DHT22;3349;49.830;8.748;2022-09-03T04:06:15;17.10;1.00
6627;DHT22;3349;49.830;8.748;2022-09-03T04:08:43;17.10;1.00
6627;DHT22;3349;49.830;8.748;2022-09-03T04:11:11;17.10;1.00
6627;DHT22;3349;49.830;8.748;2022-09-03T04:13:40;17.10;1.00
6627;DHT22;3349;49.830;8.748;2022-09-03T04:16:10;17.00;1.00
6627;DHT22;3349;49.830;8.748;2022-09-03T04:18:38;17.00;1.00
6627;DHT22;3349;49.830;8.748;2022-09-03T04:21:06;17.00;1.00
6627;DHT22;3349;49.830;8.748;2022-09-03T04:23:35;16.90;1.00
6627;DHT22;3349;49.830;8.748;2022-09-03T04:26:02;16.90;1.00
6627;DHT22;3349;49.830;8.748;2022-09-03T04:28:30;16.90;1.00
6627;DHT22;3349;49.830;8.748;2022-09-03T04:30:59;17.00;1.00
6627;DHT22;3349;49.830;8.748;2022-09-03T04:33:28;16.90;1.00
6627;DHT22;3349;49.830;8.748;2022-09-03T04:36:02;17.00;1.00
6627;DHT22;3349;49.830;8.748;2022-09-03T04:38:29;17.00;1.00
6627;DHT22;3349;49.830;8.748;2022-09-03T04:40:57;17.00;1.00
6627;DHT22;3349;49.830;8.748;2022-09-03T04:43:24;16.90;1.00
6627;DHT22;3349;49.830;8.748;2022-09-03T04:45:55;16.90;1.00
6627;DHT22;3349;49.830;8.748;2022-09-03T04:48:22;17.00;1.00
6627;DHT22;3349;49.830;8.748;2022-09-03T04:50:50;16.90;1.00
6627;DHT22;3349;49.830;8.748;2022-09-03T04:53:17;16.90;1.00
6627;DHT22;3349;49.830;8.748;2022-09-03T04:55:43;17.00;1.00
6627;DHT22;3349;49.830;8.748;2022-09-03T04:58:10;17.00;1.00
6627;DHT22;3349;49.830;8.748;2022-09-03T05:00:37;16.90;1.00
6627;DHT22;3349;49.830;8.748;2022-09-03T05:03:04;17.00;1.00
6627;DHT22;3349;49.830;8.748;2022-09-03T05:05:31;17.00;1.00
6627;DHT22;3349;49.830;8.748;2022-09-03T05:08:00;17.00;1.00
6627;DHT22;3349;49.830;8.748;2022-09-03T05:10:27;17.00;1.00
6627;DHT22;3349;49.830;8.748;2022-09-03T05:12:58;17.00;1.00
6627;DHT22;3349;49.830;8.748;2022-09-03T05:15:25;17.00;1.00
6627;DHT22;3349;49.830;8.748;2022-09-03T05:17:56;17.00;1.00
6627;DHT22;3349;49.830;8.748;2022-09-03T05:20:23;17.00;1.00
6627;DHT22;3349;49.830;8.748;2022-09-03T05:22:49;17.00;1.00
6627;DHT22;3349;49.830;8.748;2022-09-03T05:25:18;17.10;1.00
6627;DHT22;3349;49.830;8.748;2022-09-03T05:27:45;17.10;1.00
6627;DHT22;3349;49.830;8.748;2022-09-03T05:30:12;17.10;1.00
6627;DHT22;3349;49.830;8.748;2022-09-03T05:32:39;17.10;1.00
6627;DHT22;3349;49.830;8.748;2022-09-03T05:35:07;17.10;1.00
6627;DHT22;3349;49.830;8.748;2022-09-03T05:37:35;17.20;1.00
6627;DHT22;3349;49.830;8.748;2022-09-03T05:40:02;17.10;1.00
6627;DHT22;3349;49.830;8.748;2022-09-03T05:42:30;17.10;1.00
6627;DHT22;3349;49.830;8.748;2022-09-03T05:45:05;17.20;1.00
6627;DHT22;3349;49.830;8.748;2022-09-03T05:47:34;17.20;1.00
6627;DHT22;3349;49.830;8.748;2022-09-03T05:50:01;17.30;1.00
6627;DHT22;3349;49.830;8.748;2022-09-03T05:52:27;17.30;1.00
6627;DHT22;3349;49.830;8.748;2022-09-03T05:54:54;17.30;1.00
6627;DHT22;3349;49.830;8.748;2022-09-03T05:57:22;17.30;1.00
6627;DHT22;3349;49.830;8.748;2022-09-03T05:59:51;17.30;1.00
6627;DHT22;3349;49.830;8.748;2022-09-03T06:02:18;17.30;1.00
6627;DHT22;3349;49.830;8.748;2022-09-03T06:04:44;17.30;1.00
6627;DHT22;3349;49.830;8.748;2022-09-03T06:07:11;17.30;1.00
6627;DHT22;3349;49.830;8.748;2022-09-03T06:09:38;17.30;1.00
6627;DHT22;3349;49.830;8.748;2022-09-03T06:12:05;17.40;1.00
6627;DHT22;3349;49.830;8.748;2022-09-03T06:14:32;17.40;1.00
6627;DHT22;3349;49.830;8.748;2022-09-03T06:17:00;17.30;1.00
6627;DHT22;3349;49.830;8.748;2022-09-03T06:19:26;17.30;1.00
6627;DHT22;3349;49.830;8.748;2022-09-03T06:21:53;17.20;1.00
6627;DHT22;3349;49.830;8.748;2022-09-03T06:24:20;17.10;1.00
6627;DHT22;3349;49.830;8.748;2022-09-03T06:26:48;17.00;1.00
6627;DHT22;3349;49.830;8.748;2022-09-03T06:29:15;16.80;1.00
6627;DHT22;3349;49.830;8.748;2022-09-03T06:31:44;16.80;1.00
6627;DHT22;3349;49.830;8.748;2022-09-03T06:34:14;16.70;1.00
6627;DHT22;3349;49.830;8.748;2022-09-03T06:36:43;16.70;1.00
6627;DHT22;3349;49.830;8.748;2022-09-03T06:39:09;16.60;1.00
6627;DHT22;3349;49.830;8.748;2022-09-03T06:41:36;16.70;1.00
6627;DHT22;3349;49.830;8.748;2022-09-03T06:44:05;16.80;1.00
6627;DHT22;3349;49.830;8.748;2022-09-03T06:46:36;16.90;1.00
6627;DHT22;3349;49.830;8.748;2022-09-03T06:49:06;17.10;1.00
6627;DHT22;3349;49.830;8.748;2022-09-03T06:51:35;17.30;1.00
6627;DHT22;3349;49.830;8.748;2022-09-03T06:54:05;17.30;1.00
6627;DHT22;3349;49.830;8.748;2022-09-03T06:56:32;17.40;1.00
6627;DHT22;3349;49.830;8.748;2022-09-03T06:59:03;17.40;1.00
6627;DHT22;3349;49.830;8.748;2022-09-03T07:01:31;17.30;1.00
6627;DHT22;3349;49.830;8.748;2022-09-03T07:03:59;17.30;1.00
6627;DHT22;3349;49.830;8.748;2022-09-03T07:06:28;17.30;1.00
6627;DHT22;3349;49.830;8.748;2022-09-03T07:08:57;17.40;1.00
6627;DHT22;3349;49.830;8.748;2022-09-03T07:11:25;17.40;1.00
6627;DHT22;3349;49.830;8.748;2022-09-03T07:13:54;17.40;1.00
6627;DHT22;3349;49.830;8.748;2022-09-03T07:16:22;17.40;1.00
6627;DHT22;3349;49.830;8.748;2022-09-03T07:18:50;17.50;1.00
6627;DHT22;3349;49.830;8.748;2022-09-03T07:21:19;17.60;1.00
6627;DHT22;3349;49.830;8.748;2022-09-03T07:23:46;17.80;1.00
6627;DHT22;3349;49.830;8.748;2022-09-03T07:26:16;17.90;1.00
6627;DHT22;3349;49.830;8.748;2022-09-03T07:28:44;18.10;1.00
6627;DHT22;3349;49.830;8.748;2022-09-03T07:31:13;18.20;1.00
6627;DHT22;3349;49.830;8.748;2022-09-03T07:33:41;18.30;1.00
6627;DHT22;3349;49.830;8.748;2022-09-03T07:36:10;18.30;1.00
6627;DHT22;3349;49.830;8.748;2022-09-03T07:38:39;18.30;1.00
6627;DHT22;3349;49.830;8.748;2022-09-03T07:41:08;18.30;1.00
6627;DHT22;3349;49.830;8.748;2022-09-03T07:43:38;18.20;1.00
6627;DHT22;3349;49.830;8.748;2022-09-03T07:46:05;18.20;1.00
6627;DHT22;3349;49.830;8.748;2022-09-03T07:48:33;18.10;1.00
6627;DHT22;3349;49.830;8.748;2022-09-03T07:51:00;17.90;1.00
6627;DHT22;3349;49.830;8.748;2022-09-03T07:53:28;17.80;1.00
6627;DHT22;3349;49.830;8.748;2022-09-03T07:56:00;17.70;1.00
6627;DHT22;3349;49.830;8.748;2022-09-03T07:58:28;17.70;1.00
6627;DHT22;3349;49.830;8.748;2022-09-03T08:00:56;17.50;1.00
6627;DHT22;3349;49.830;8.748;2022-09-03T08:03:23;17.40;1.00
6627;DHT22;3349;49.830;8.748;2022-09-03T08:05:50;17.40;1.00
6627;DHT22;3349;49.830;8.748;2022-09-03T08:08:17;17.50;1.00
6627;DHT22;3349;49.830;8.748;2022-09-03T08:10:44;17.60;1.00
6627;DHT22;3349;49.830;8.748;2022-09-03T08:13:11;17.80;1.00
6627;DHT22;3349;49.830;8.748;2022-09-03T08:15:37;18.00;1.00
6627;DHT22;3349;49.830;8.748;2022-09-03T08:18:08;18.20;1.00
6627;DHT22;3349;49.830;8.748;2022-09-03T08:20:36;18.40;1.00
6627;DHT22;3349;49.830;8.748;2022-09-03T08:23:03;18.60;1.00
6627;DHT22;3349;49.830;8.748;2022-09-03T08:25:29;18.70;1.00
6627;DHT22;3349;49.830;8.748;2022-09-03T08:27:57;18.80;1.00
6627;DHT22;3349;49.830;8.748;2022-09-03T08:30:24;18.80;1.00
6627;DHT22;3349;49.830;8.748;2022-09-03T08:32:52;18.90;1.00
6627;DHT22;3349;49.830;8.748;2022-09-03T08:35:20;18.90;1.00
6627;DHT22;3349;49.830;8.748;2022-09-03T08:37:47;19.10;1.00
6627;DHT22;3349;49.830;8.748;2022-09-03T08:40:16;19.20;1.00
6627;DHT22;3349;49.830;8.748;2022-09-03T08:42:55;19.30;1.00
6627;DHT22;3349;49.830;8.748;2022-09-03T08:45:25;19.40;1.00
6627;DHT22;3349;49.830;8.748;2022-09-03T08:48:00;19.50;1.00
6627;DHT22;3349;49.830;8.748;2022-09-03T08:50:33;19.60;1.00
6627;DHT22;3349;49.830;8.748;2022-09-03T08:53:07;19.60;1.00
6627;DHT22;3349;49.830;8.748;2022-09-03T08:55:40;19.70;1.00
6627;DHT22;3349;49.830;8.748;2022-09-03T08:58:11;19.80;1.00
6627;DHT22;3349;49.830;8.748;2022-09-03T09:00:46;19.90;1.00
6627;DHT22;3349;49.830;8.748;2022-09-03T09:03:29;20.10;1.00
6627;DHT22;3349;49.830;8.748;2022-09-03T09:06:09;20.20;1.00
6627;DHT22;3349;49.830;8.748;2022-09-03T09:08:42;20.10;1.00
6627;DHT22;3349;49.830;8.748;2022-09-03T09:11:26;20.40;1.00
6627;DHT22;3349;49.830;8.748;2022-09-03T09:13:58;20.50;1.00
6627;DHT22;3349;49.830;8.748;2022-09-03T09:16:37;20.40;1.00
6627;DHT22;3349;49.830;8.748;2022-09-03T09:19:16;20.50;1.00
6627;DHT22;3349;49.830;8.748;2022-09-03T09:21:51;20.50;1.00
6627;DHT22;3349;49.830;8.748;2022-09-03T09:24:22;20.40;1.00
6627;DHT22;3349;49.830;8.748;2022-09-03T09:26:55;20.30;1.00
6627;DHT22;3349;49.830;8.748;2022-09-03T09:29:26;20.10;1.00
6627;DHT22;3349;49.830;8.748;2022-09-03T09:31:53;20.00;1.00
6627;DHT22;3349;49.830;8.748;2022-09-03T09:34:20;19.80;1.00
6627;DHT22;3349;49.830;8.748;2022-09-03T09:36:51;19.50;1.00
6627;DHT22;3349;49.830;8.748;2022-09-03T09:39:18;19.40;1.00
6627;DHT22;3349;49.830;8.748;2022-09-03T09:41:56;19.30;1.00
6627;DHT22;3349;49.830;8.748;2022-09-03T09:44:25;19.20;1.00
6627;DHT22;3349;49.830;8.748;2022-09-03T09:47:01;19.10;1.00
6627;DHT22;3349;49.830;8.748;2022-09-03T09:49:31;19.20;1.00
6627;DHT22;3349;49.830;8.748;2022-09-03T09:52:05;19.20;1.00
6627;DHT22;3349;49.830;8.748;2022-09-03T09:54:33;19.30;1.00
6627;DHT22;3349;49.830;8.748;2022-09-03T09:57:01;19.40;1.00
6627;DHT22;3349;49.830;8.748;2022-09-03T09:59:28;19.60;1.00
6627;DHT22;3349;49.830;8.748;2022-09-03T10:02:11;19.90;1.00
6627;DHT22;3349;49.830;8.748;2022-09-03T10:04:39;20.50;1.00
6627;DHT22;3349;49.830;8.748;2022-09-03T10:07:22;20.80;1.00
6627;DHT22;3349;49.830;8.748;2022-09-03T10:10:00;21.30;1.00
6627;DHT22;3349;49.830;8.748;2022-09-03T10:12:30;21.30;1.00
6627;DHT22;3349;49.830;8.748;2022-09-03T10:15:06;21.00;1.00
6627;DHT22;3349;49.830;8.748;2022-09-03T10:17:42;21.10;1.00
6627;DHT22;3349;49.830;8.748;2022-09-03T10:20:12;21.40;1.00
6627;DHT22;3349;49.830;8.748;2022-09-03T10:23:08;21.60;1.00
6627;DHT22;3349;49.830;8.748;2022-09-03T10:25:39;22.70;1.00
6627;DHT22;3349;49.830;8.748;2022-09-03T10:28:12;23.10;1.00
6627;DHT22;3349;49.830;8.748;2022-09-03T10:30:51;23.00;1.00
6627;DHT22;3349;49.830;8.748;2022-09-03T10:33:24;22.90;1.00
6627;DHT22;3349;49.830;8.748;2022-09-03T10:35:59;22.50;1.00
6627;DHT22;3349;49.830;8.748;2022-09-03T10:38:33;22.30;1.00
6627;DHT22;3349;49.830;8.748;2022-09-03T10:41:09;22.20;1.00
6627;DHT22;3349;49.830;8.748;2022-09-03T10:44:08;23.20;1.00
6627;DHT22;3349;49.830;8.748;2022-09-03T10:46:45;25.00;1.00
6627;DHT22;3349;49.830;8.748;2022-09-03T10:49:23;27.40;1.00
6627;DHT22;3349;49.830;8.748;2022-09-03T10:52:00;29.10;1.00
6627;DHT22;3349;49.830;8.748;2022-09-03T10:54:44;31.10;1.00
6627;DHT22;3349;49.830;8.748;2022-09-03T10:57:21;33.00;1.00
6627;DHT22;3349;49.830;8.748;2022-09-03T10:59:59;33.70;1.00
6627;DHT22;3349;49.830;8.748;2022-09-03T11:05:29;35.50;1.00
6627;DHT22;3349;49.830;8.748;2022-09-03T11:08:01;35.80;1.00
6627;DHT22;3349;49.830;8.748;2022-09-03T11:10:34;35.50;1.00
6627;DHT22;3349;49.830;8.748;2022-09-03T11:13:08;35.10;1.00
6627;DHT22;3349;49.830;8.748;2022-09-03T11:15:41;33.60;1.00
6627;DHT22;3349;49.830;8.748;2022-09-03T11:18:15;31.50;1.00
6627;DHT22;3349;49.830;8.748;2022-09-03T11:20:45;30.30;1.00
6627;DHT22;3349;49.830;8.748;2022-09-03T11:23:15;30.80;1.00
6627;DHT22;3349;49.830;8.748;2022-09-03T11:25:49;29.80;1.00
6627;DHT22;3349;49.830;8.748;2022-09-03T11:28:28;29.90;1.00
6627;DHT22;3349;49.830;8.748;2022-09-03T11:31:11;30.30;1.00
6627;DHT22;3349;49.830;8.748;2022-09-03T11:33:43;29.80;1.00
6627;DHT22;3349;49.830;8.748;2022-09-03T11:36:12;30.20;1.00
6627;DHT22;3349;49.830;8.748;2022-09-03T11:38:38;31.10;1.00
6627;DHT22;3349;49.830;8.748;2022-09-03T11:41:13;31.20;1.00
6627;DHT22;3349;49.830;8.748;2022-09-03T11:43:42;30.30;1.00
6627;DHT22;3349;49.830;8.748;2022-09-03T11:46:11;30.40;1.00
6627;DHT22;3349;49.830;8.748;2022-09-03T11:48:41;30.10;1.00
6627;DHT22;3349;49.830;8.748;2022-09-03T11:51:20;28.60;1.00
6627;DHT22;3349;49.830;8.748;2022-09-03T11:53:57;28.60;1.00
6627;DHT22;3349;49.830;8.748;2022-09-03T11:56:26;28.50;1.00
6627;DHT22;3349;49.830;8.748;2022-09-03T11:59:03;30.00;1.00
6627;DHT22;3349;49.830;8.748;2022-09-03T12:01:31;30.70;1.00
6627;DHT22;3349;49.830;8.748;2022-09-03T12:04:00;31.00;1.00
6627;DHT22;3349;49.830;8.748;2022-09-03T12:09:53;28.50;1.00
6627;DHT22;3349;49.830;8.748;2022-09-03T12:12:47;27.50;1.00
6627;DHT22;3349;49.830;8.748;2022-09-03T12:15:29;27.30;1.00
6627;DHT22;3349;49.830;8.748;2022-09-03T12:18:03;26.60;1.00
6627;DHT22;3349;49.830;8.748;2022-09-03T12:20:47;26.40;1.00
6627;DHT22;3349;49.830;8.748;2022-09-03T12:23:26;26.10;1.00
6627;DHT22;3349;49.830;8.748;2022-09-03T12:25:54;25.70;1.00
6627;DHT22;3349;49.830;8.748;2022-09-03T12:28:23;25.50;1.00
6627;DHT22;3349;49.830;8.748;2022-09-03T12:30:51;25.10;1.00
6627;DHT22;3349;49.830;8.748;2022-09-03T12:33:20;25.00;1.00
6627;DHT22;3349;49.830;8.748;2022-09-03T12:35:56;24.50;1.00
6627;DHT22;3349;49.830;8.748;2022-09-03T12:38:23;24.30;1.00
6627;DHT22;3349;49.830;8.748;2022-09-03T12:40:50;24.40;1.00
6627;DHT22;3349;49.830;8.748;2022-09-03T12:43:19;24.40;1.00
6627;DHT22;3349;49.830;8.748;2022-09-03T12:45:48;24.50;1.00
6627;DHT22;3349;49.830;8.748;2022-09-03T12:48:17;24.60;1.00
6627;DHT22;3349;49.830;8.748;2022-09-03T12:50:46;24.60;1.00
6627;DHT22;3349;49.830;8.748;2022-09-03T12:53:17;24.80;1.00
6627;DHT22;3349;49.830;8.748;2022-09-03T12:55:49;24.80;1.00
6627;DHT22;3349;49.830;8.748;2022-09-03T12:58:21;24.60;1.00
6627;DHT22;3349;49.830;8.748;2022-09-03T13:00:54;24.50;1.00
6627;DHT22;3349;49.830;8.748;2022-09-03T13:03:27;24.80;1.00
6627;DHT22;3349;49.830;8.748;2022-09-03T13:05:58;24.90;1.00
6627;DHT22;3349;49.830;8.748;2022-09-03T13:08:28;24.50;1.00
6627;DHT22;3349;49.830;8.748;2022-09-03T13:10:58;24.70;1.00
6627;DHT22;3349;49.830;8.748;2022-09-03T13:13:29;25.00;1.00
6627;DHT22;3349;49.830;8.748;2022-09-03T13:16:15;25.10;1.00
6627;DHT22;3349;49.830;8.748;2022-09-03T13:18:54;25.10;1.00
6627;DHT22;3349;49.830;8.748;2022-09-03T13:21:33;24.80;1.00
6627;DHT22;3349;49.830;8.748;2022-09-03T13:24:25;24.50;1.00
6627;DHT22;3349;49.830;8.748;2022-09-03T13:27:03;24.50;1.00
6627;DHT22;3349;49.830;8.748;2022-09-03T13:29:52;24.50;1.00
6627;DHT22;3349;49.830;8.748;2022-09-03T13:32:31;24.80;1.00
6627;DHT22;3349;49.830;8.748;2022-09-03T13:35:07;24.90;1.00
6627;DHT22;3349;49.830;8.748;2022-09-03T13:37:39;24.70;1.00
6627;DHT22;3349;49.830;8.748;2022-09-03T13:40:14;24.50;1.00
6627;DHT22;3349;49.830;8.748;2022-09-03T13:42:47;24.50;1.00
6627;DHT22;3349;49.830;8.748;2022-09-03T13:45:25;24.50;1.00
6627;DHT22;3349;49.830;8.748;2022-09-03T13:48:00;24.80;1.00
6627;DHT22;3349;49.830;8.748;2022-09-03T13:50:51;25.30;1.00
6627;DHT22;3349;49.830;8.748;2022-09-03T13:53:24;25.40;1.00
6627;DHT22;3349;49.830;8.748;2022-09-03T13:55:59;25.30;1.00
6627;DHT22;3349;49.830;8.748;2022-09-03T13:58:32;25.50;1.00
6627;DHT22;3349;49.830;8.748;2022-09-03T14:01:08;25.30;1.00
6627;DHT22;3349;49.830;8.748;2022-09-03T14:03:44;25.10;1.00
6627;DHT22;3349;49.830;8.748;2022-09-03T14:06:19;24.90;1.00
6627;DHT22;3349;49.830;8.748;2022-09-03T14:08:58;24.90;1.00
6627;DHT22;3349;49.830;8.748;2022-09-03T14:11:31;25.10;1.00
6627;DHT22;3349;49.830;8.748;2022-09-03T14:14:10;25.00;1.00
6627;DHT22;3349;49.830;8.748;2022-09-03T14:16:42;25.10;1.00
6627;DHT22;3349;49.830;8.748;2022-09-03T14:19:14;24.90;1.00
6627;DHT22;3349;49.830;8.748;2022-09-03T14:21:49;25.00;1.00
6627;DHT22;3349;49.830;8.748;2022-09-03T14:24:20;25.00;1.00
6627;DHT22;3349;49.830;8.748;2022-09-03T14:26:51;25.00;1.00
6627;DHT22;3349;49.830;8.748;2022-09-03T14:29:22;24.70;1.00
6627;DHT22;3349;49.830;8.748;2022-09-03T14:34:59;24.70;1.00
6627;DHT22;3349;49.830;8.748;2022-09-03T14:37:53;24.50;1.00
6627;DHT22;3349;49.830;8.748;2022-09-03T14:40:29;24.30;1.00
6627;DHT22;3349;49.830;8.748;2022-09-03T14:43:15;24.00;1.00
6627;DHT22;3349;49.830;8.748;2022-09-03T14:45:55;23.50;1.00
6627;DHT22;3349;49.830;8.748;2022-09-03T14:48:51;23.60;1.00
6627;DHT22;3349;49.830;8.748;2022-09-03T14:51:35;23.60;1.00
6627;DHT22;3349;49.830;8.748;2022-09-03T14:54:18;23.60;1.00
6627;DHT22;3349;49.830;8.748;2022-09-03T14:57:01;23.50;1.00
6627;DHT22;3349;49.830;8.748;2022-09-03T14:59:48;23.30;1.00
6627;DHT22;3349;49.830;8.748;2022-09-03T15:02:49;23.20;1.00
6627;DHT22;3349;49.830;8.748;2022-09-03T15:05:32;23.10;1.00
6627;DHT22;3349;49.830;8.748;2022-09-03T15:08:12;23.20;1.00
6627;DHT22;3349;49.830;8.748;2022-09-03T15:10:44;23.20;1.00
6627;DHT22;3349;49.830;8.748;2022-09-03T15:13:17;23.00;1.00
6627;DHT22;3349;49.830;8.748;2022-09-03T15:15:56;23.00;1.00
6627;DHT22;3349;49.830;8.748;2022-09-03T15:18:29;22.90;1.00
6627;DHT22;3349;49.830;8.748;2022-09-03T15:21:04;22.90;1.00
6627;DHT22;3349;49.830;8.748;2022-09-03T15:23:49;22.90;1.00
6627;DHT22;3349;49.830;8.748;2022-09-03T15:26:39;23.00;1.00
6627;DHT22;3349;49.830;8.748;2022-09-03T15:29:17;23.10;1.00
6627;DHT22;3349;49.830;8.748;2022-09-03T15:31:52;23.10;1.00
6627;DHT22;3349;49.830;8.748;2022-09-03T15:34:46;23.10;1.00
6627;DHT22;3349;49.830;8.748;2022-09-03T15:37:19;23.00;1.00
6627;DHT22;3349;49.830;8.748;2022-09-03T15:39:58;23.00;1.00
6627;DHT22;3349;49.830;8.748;2022-09-03T15:42:27;23.00;1.00
6627;DHT22;3349;49.830;8.748;2022-09-03T15:44:55;23.00;1.00
6627;DHT22;3349;49.830;8.748;2022-09-03T15:47:36;22.90;1.00
6627;DHT22;3349;49.830;8.748;2022-09-03T15:50:15;22.80;1.00
6627;DHT22;3349;49.830;8.748;2022-09-03T15:52:52;22.70;1.00
6627;DHT22;3349;49.830;8.748;2022-09-03T15:55:29;22.60;1.00
6627;DHT22;3349;49.830;8.748;2022-09-03T15:58:00;22.50;1.00
6627;DHT22;3349;49.830;8.748;2022-09-03T16:00:40;22.50;1.00
6627;DHT22;3349;49.830;8.748;2022-09-03T16:03:19;22.30;1.00
6627;DHT22;3349;49.830;8.748;2022-09-03T16:05:53;22.30;1.00
6627;DHT22;3349;49.830;8.748;2022-09-03T16:08:26;22.30;1.00
6627;DHT22;3349;49.830;8.748;2022-09-03T16:11:05;22.40;1.00
6627;DHT22;3349;49.830;8.748;2022-09-03T16:13:42;22.30;1.00
6627;DHT22;3349;49.830;8.748;2022-09-03T16:16:15;22.30;1.00
6627;DHT22;3349;49.830;8.748;2022-09-03T16:18:56;22.30;1.00
6627;DHT22;3349;49.830;8.748;2022-09-03T16:21:29;22.30;1.00
6627;DHT22;3349;49.830;8.748;2022-09-03T16:23:59;22.40;1.00
6627;DHT22;3349;49.830;8.748;2022-09-03T16:26:32;22.40;1.00
6627;DHT22;3349;49.830;8.748;2022-09-03T16:29:07;22.40;1.00
6627;DHT22;3349;49.830;8.748;2022-09-03T16:31:45;22.40;1.00
6627;DHT22;3349;49.830;8.748;2022-09-03T16:34:21;22.30;1.00
6627;DHT22;3349;49.830;8.748;2022-09-03T16:36:56;22.30;1.00
6627;DHT22;3349;49.830;8.748;2022-09-03T16:39:31;22.20;1.00
6627;DHT22;3349;49.830;8.748;2022-09-03T16:42:08;22.20;1.00
6627;DHT22;3349;49.830;8.748;2022-09-03T16:44:44;22.10;1.00
6627;DHT22;3349;49.830;8.748;2022-09-03T16:47:20;22.10;1.00
6627;DHT22;3349;49.830;8.748;2022-09-03T16:49:55;22.10;1.00
6627;DHT22;3349;49.830;8.748;2022-09-03T16:52:31;22.00;1.00
6627;DHT22;3349;49.830;8.748;2022-09-03T16:55:10;22.00;1.00
6627;DHT22;3349;49.830;8.748;2022-09-03T16:57:51;21.90;1.00
6627;DHT22;3349;49.830;8.748;2022-09-03T17:00:22;21.90;1.00
6627;DHT22;3349;49.830;8.748;2022-09-03T17:03:12;21.80;1.00
6627;DHT22;3349;49.830;8.748;2022-09-03T17:06:06;21.80;1.00
6627;DHT22;3349;49.830;8.748;2022-09-03T17:08:46;21.80;1.00
6627;DHT22;3349;49.830;8.748;2022-09-03T17:11:33;21.80;1.00
6627;DHT22;3349;49.830;8.748;2022-09-03T17:14:17;21.70;1.00
6627;DHT22;3349;49.830;8.748;2022-09-03T17:16:57;21.70;1.00
6627;DHT22;3349;49.830;8.748;2022-09-03T17:19:37;21.70;1.00
6627;DHT22;3349;49.830;8.748;2022-09-03T17:22:18;21.60;1.00
6627;DHT22;3349;49.830;8.748;2022-09-03T17:24:50;21.50;1.00
6627;DHT22;3349;49.830;8.748;2022-09-03T17:27:42;21.30;1.00
6627;DHT22;3349;49.830;8.748;2022-09-03T17:30:22;21.10;1.00
6627;DHT22;3349;49.830;8.748;2022-09-03T17:33:10;21.10;1.00
6627;DHT22;3349;49.830;8.748;2022-09-03T17:35:59;20.90;1.00
6627;DHT22;3349;49.830;8.748;2022-09-03T17:41:24;20.80;1.00
6627;DHT22;3349;49.830;8.748;2022-09-03T17:43:59;20.80;1.00
6627;DHT22;3349;49.830;8.748;2022-09-03T17:46:33;20.70;1.00
6627;DHT22;3349;49.830;8.748;2022-09-03T17:49:06;20.60;1.00
6627;DHT22;3349;49.830;8.748;2022-09-03T17:51:39;20.60;1.00
6627;DHT22;3349;49.830;8.748;2022-09-03T17:54:15;20.50;1.00
6627;DHT22;3349;49.830;8.748;2022-09-03T17:56:50;20.40;1.00
6627;DHT22;3349;49.830;8.748;2022-09-03T17:59:28;20.30;1.00
6627;DHT22;3349;49.830;8.748;2022-09-03T18:02:02;20.20;1.00
6627;DHT22;3349;49.830;8.748;2022-09-03T18:04:42;20.10;1.00
6627;DHT22;3349;49.830;8.748;2022-09-03T18:07:17;20.00;1.00
6627;DHT22;3349;49.830;8.748;2022-09-03T18:09:54;19.90;1.00
6627;DHT22;3349;49.830;8.748;2022-09-03T18:12:31;19.80;1.00
6627;DHT22;3349;49.830;8.748;2022-09-03T18:15:06;19.70;1.00
6627;DHT22;3349;49.830;8.748;2022-09-03T18:17:40;19.60;1.00
6627;DHT22;3349;49.830;8.748;2022-09-03T18:20:11;19.50;1.00
6627;DHT22;3349;49.830;8.748;2022-09-03T18:23:01;19.30;1.00
6627;DHT22;3349;49.830;8.748;2022-09-03T18:25:49;19.20;1.00
6627;DHT22;3349;49.830;8.748;2022-09-03T18:28:39;19.10;1.00
6627;DHT22;3349;49.830;8.748;2022-09-03T18:31:25;19.00;1.00
6627;DHT22;3349;49.830;8.748;2022-09-03T18:34:11;18.90;1.00
6627;DHT22;3349;49.830;8.748;2022-09-03T18:36:57;18.80;1.00
6627;DHT22;3349;49.830;8.748;2022-09-03T18:39:44;18.80;1.00
6627;DHT22;3349;49.830;8.748;2022-09-03T18:42:41;18.70;1.00
6627;DHT22;3349;49.830;8.748;2022-09-03T18:45:37;18.70;1.00
6627;DHT22;3349;49.830;8.748;2022-09-03T18:48:30;18.70;1.00
6627;DHT22;3349;49.830;8.748;2022-09-03T18:51:26;18.70;1.00
6627;DHT22;3349;49.830;8.748;2022-09-03T18:54:25;18.60;1.00
6627;DHT22;3349;49.830;8.748;2022-09-03T18:57:17;18.40;1.00
6627;DHT22;3349;49.830;8.748;2022-09-03T19:00:08;18.30;1.00
6627;DHT22;3349;49.830;8.748;2022-09-03T19:03:05;18.30;1.00
6627;DHT22;3349;49.830;8.748;2022-09-03T19:05:59;18.20;1.00
6627;DHT22;3349;49.830;8.748;2022-09-03T19:08:50;18.20;1.00
6627;DHT22;3349;49.830;8.748;2022-09-03T19:11:45;18.10;1.00
6627;DHT22;3349;49.830;8.748;2022-09-03T19:14:38;18.10;1.00
6627;DHT22;3349;49.830;8.748;2022-09-03T19:17:31;18.10;1.00
6627;DHT22;3349;49.830;8.748;2022-09-03T19:20:23;18.10;1.00
6627;DHT22;3349;49.830;8.748;2022-09-03T19:23:10;18.00;1.00
6627;DHT22;3349;49.830;8.748;2022-09-03T19:25:58;18.10;1.00
6627;DHT22;3349;49.830;8.748;2022-09-03T19:28:46;18.00;1.00
6627;DHT22;3349;49.830;8.748;2022-09-03T19:31:42;18.00;1.00
6627;DHT22;3349;49.830;8.748;2022-09-03T19:34:50;17.90;1.00
6627;DHT22;3349;49.830;8.748;2022-09-03T19:37:43;17.90;1.00
6627;DHT22;3349;49.830;8.748;2022-09-03T19:40:39;17.80;1.00
6627;DHT22;3349;49.830;8.748;2022-09-03T19:43:34;17.80;1.00
6627;DHT22;3349;49.830;8.748;2022-09-03T19:46:26;17.80;1.00
6627;DHT22;3349;49.830;8.748;2022-09-03T19:49:19;17.80;1.00
6627;DHT22;3349;49.830;8.748;2022-09-03T19:52:10;17.70;1.00
6627;DHT22;3349;49.830;8.748;2022-09-03T19:54:58;17.70;1.00
6627;DHT22;3349;49.830;8.748;2022-09-03T19:57:47;17.70;1.00
6627;DHT22;3349;49.830;8.748;2022-09-03T20:00:36;17.70;1.00
6627;DHT22;3349;49.830;8.748;2022-09-03T20:03:21;17.70;1.00
6627;DHT22;3349;49.830;8.748;2022-09-03T20:06:07;17.70;1.00
6627;DHT22;3349;49.830;8.748;2022-09-03T20:08:54;17.70;1.00
6627;DHT22;3349;49.830;8.748;2022-09-03T20:11:40;17.70;1.00
6627;DHT22;3349;49.830;8.748;2022-09-03T20:14:11;17.70;1.00
6627;DHT22;3349;49.830;8.748;2022-09-03T20:16:46;17.60;1.00
6627;DHT22;3349;49.830;8.748;2022-09-03T20:19:26;17.60;1.00
6627;DHT22;3349;49.830;8.748;2022-09-03T20:22:02;17.60;1.00
6627;DHT22;3349;49.830;8.748;2022-09-03T20:24:42;17.60;1.00